createdAt,value
2023-04-30T00:00:08.210Z,78
2023-04-30T00:01:08.483Z,78
2023-04-30T00:03:08.492Z,78
2023-04-30T00:04:08.366Z,78
2023-04-30T00:05:08.541Z,78
2023-04-30T00:07:08.107Z,78
2023-04-30T00:08:08.228Z,78
2023-04-30T00:09:08.203Z,78
2023-04-30T00:10:08.459Z,78
2023-04-30T00:11:07.880Z,78
2023-04-30T00:12:08.041Z,78
2023-04-30T00:13:07.858Z,78
2023-04-30T00:14:08.054Z,78
2023-04-30T00:15:08.556Z,79
2023-04-30T00:16:08.436Z,79
2023-04-30T00:17:08.510Z,79
2023-04-30T00:18:08.178Z,79
2023-04-30T00:19:08.324Z,79
2023-04-30T00:20:08.633Z,79
2023-04-30T00:21:07.875Z,78
2023-04-30T00:22:08.497Z,78
2023-04-30T00:23:08.719Z,78
2023-04-30T00:24:08.177Z,78
2023-04-30T00:25:08.310Z,78
2023-04-30T00:26:08.582Z,78
2023-04-30T00:27:08.723Z,78
2023-04-30T00:28:07.992Z,78
2023-04-30T00:29:08.096Z,78
2023-04-30T00:30:08.497Z,78
2023-04-30T00:31:08.409Z,78
2023-04-30T00:32:08.389Z,78
2023-04-30T00:34:08.751Z,78
2023-04-30T00:35:08.267Z,78
2023-04-30T00:36:08.185Z,78
2023-04-30T00:37:08.474Z,78
2023-04-30T00:38:08.493Z,78
2023-04-30T00:39:08.777Z,78
2023-04-30T00:40:08.634Z,78
2023-04-30T00:41:07.826Z,78
2023-04-30T00:42:08.262Z,78
2023-04-30T00:43:08.422Z,78
2023-04-30T00:44:08.736Z,78
2023-04-30T00:45:08.067Z,78
2023-04-30T00:46:08.193Z,78
2023-04-30T00:47:08.288Z,78
2023-04-30T00:48:08.594Z,78
2023-04-30T00:49:08.021Z,78
2023-04-30T00:50:08.216Z,78
2023-04-30T00:53:08.210Z,78
2023-04-30T00:54:08.516Z,78
2023-04-30T00:55:08.472Z,78
2023-04-30T00:56:08.564Z,78
2023-04-30T00:57:08.013Z,78
2023-04-30T00:58:08.319Z,78
2023-04-30T00:59:07.093Z,78
2023-04-30T01:00:08.255Z,78
2023-04-30T01:01:08.495Z,78
2023-04-30T01:02:07.606Z,78
2023-04-30T01:03:08.172Z,78
2023-04-30T01:04:08.310Z,78
2023-04-30T01:05:08.474Z,78
2023-04-30T01:07:08.233Z,78
2023-04-30T01:08:08.158Z,78
2023-04-30T01:09:08.410Z,78
2023-04-30T01:10:08.737Z,78
2023-04-30T01:11:07.899Z,78
2023-04-30T01:12:07.940Z,78
2023-04-30T01:13:08.319Z,78
2023-04-30T01:14:08.756Z,78
2023-04-30T01:15:07.783Z,78
2023-04-30T01:16:08.628Z,78
2023-04-30T01:17:07.898Z,78
2023-04-30T01:18:08.098Z,78
2023-04-30T01:19:08.473Z,78
2023-04-30T01:21:08.225Z,78
2023-04-30T01:22:08.227Z,78
2023-04-30T01:23:08.382Z,78
2023-04-30T01:24:08.024Z,78
2023-04-30T01:25:08.379Z,78
2023-04-30T01:26:08.430Z,78
2023-04-30T01:27:08.728Z,78
2023-04-30T01:28:08.093Z,78
2023-04-30T01:29:08.837Z,79
2023-04-30T01:30:08.005Z,79
2023-04-30T01:31:08.063Z,79
2023-04-30T01:32:08.306Z,79
2023-04-30T01:33:08.671Z,79
2023-04-30T01:34:08.810Z,79
2023-04-30T01:35:08.657Z,79
2023-04-30T01:36:08.774Z,79
2023-04-30T01:37:08.038Z,79
2023-04-30T01:38:08.009Z,79
2023-04-30T01:39:08.100Z,79
2023-04-30T01:40:07.956Z,79
2023-04-30T01:41:08.115Z,79
2023-04-30T01:42:08.472Z,79
2023-04-30T01:43:08.072Z,79
2023-04-30T01:44:08.408Z,79
2023-04-30T01:45:08.817Z,79
2023-04-30T01:46:08.028Z,79
2023-04-30T01:49:08.294Z,79
2023-04-30T01:50:08.048Z,79
2023-04-30T01:51:08.326Z,79
2023-04-30T01:52:08.449Z,79
2023-04-30T01:54:07.958Z,79
2023-04-30T01:55:08.327Z,79
2023-04-30T01:56:07.837Z,79
2023-04-30T01:57:08.127Z,79
2023-04-30T01:58:08.310Z,79
2023-04-30T02:00:08.003Z,79
2023-04-30T02:01:08.459Z,79
2023-04-30T02:02:08.663Z,79
2023-04-30T02:03:08.062Z,79
2023-04-30T02:04:08.076Z,79
2023-04-30T02:05:08.323Z,79
2023-04-30T02:06:08.774Z,80
2023-04-30T02:07:08.018Z,80
2023-04-30T02:08:07.836Z,80
2023-04-30T02:09:08.442Z,80
2023-04-30T02:10:08.633Z,80
2023-04-30T02:11:08.131Z,80
2023-04-30T02:12:08.469Z,80
2023-04-30T02:13:08.492Z,80
2023-04-30T02:15:08.178Z,80
2023-04-30T02:16:08.474Z,80
2023-04-30T02:17:08.523Z,80
2023-04-30T02:18:08.865Z,80
2023-04-30T02:19:07.937Z,80
2023-04-30T02:20:08.423Z,80
2023-04-30T02:21:08.330Z,80
2023-04-30T02:22:07.907Z,80
2023-04-30T02:23:08.138Z,80
2023-04-30T02:24:08.442Z,80
2023-04-30T02:25:08.050Z,80
2023-04-30T02:26:08.665Z,80
2023-04-30T02:27:07.907Z,80
2023-04-30T02:28:08.186Z,80
2023-04-30T02:29:08.545Z,80
2023-04-30T02:30:08.861Z,80
2023-04-30T02:31:07.751Z,80
2023-04-30T02:32:08.047Z,80
2023-04-30T02:33:07.831Z,80
2023-04-30T02:34:07.916Z,80
2023-04-30T02:35:08.303Z,80
2023-04-30T02:36:07.710Z,80
2023-04-30T02:37:08.749Z,80
2023-04-30T02:38:08.201Z,80
2023-04-30T02:39:08.250Z,80
2023-04-30T02:41:08.654Z,80
2023-04-30T02:42:08.169Z,80
2023-04-30T02:43:08.343Z,80
2023-04-30T02:44:08.555Z,80
2023-04-30T02:45:07.958Z,80
2023-04-30T02:46:08.158Z,80
2023-04-30T02:47:08.434Z,80
2023-04-30T02:48:08.098Z,80
2023-04-30T02:49:08.215Z,80
2023-04-30T02:50:07.605Z,80
2023-04-30T02:51:08.077Z,80
2023-04-30T02:52:08.489Z,80
2023-04-30T02:53:08.518Z,80
2023-04-30T02:54:07.807Z,80
2023-04-30T02:55:07.819Z,80
2023-04-30T02:56:08.642Z,80
2023-04-30T02:57:07.794Z,81
2023-04-30T02:58:08.188Z,80
2023-04-30T02:59:08.427Z,80
2023-04-30T03:00:08.200Z,80
2023-04-30T03:01:08.174Z,80
2023-04-30T03:02:08.466Z,80
2023-04-30T03:03:08.708Z,81
2023-04-30T03:04:08.718Z,80
2023-04-30T03:05:08.257Z,81
2023-04-30T03:06:08.579Z,80
2023-04-30T03:07:08.796Z,80
2023-04-30T03:08:08.685Z,80
2023-04-30T03:09:08.787Z,80
2023-04-30T03:10:08.234Z,80
2023-04-30T03:11:08.889Z,80
2023-04-30T03:12:07.973Z,80
2023-04-30T03:16:08.274Z,80
2023-04-30T03:17:08.200Z,80
2023-04-30T03:18:08.502Z,80
2023-04-30T03:21:08.480Z,80
2023-04-30T03:22:07.925Z,80
2023-04-30T03:23:07.955Z,80
2023-04-30T03:24:08.169Z,81
2023-04-30T03:25:08.563Z,81
2023-04-30T03:26:08.591Z,81
2023-04-30T03:27:08.831Z,81
2023-04-30T03:28:08.060Z,81
2023-04-30T03:29:08.239Z,81
2023-04-30T03:30:08.570Z,81
2023-04-30T03:31:08.623Z,80
2023-04-30T03:32:08.727Z,80
2023-04-30T03:33:08.367Z,80
2023-04-30T03:34:08.245Z,80
2023-04-30T03:35:08.275Z,80
2023-04-30T03:36:08.528Z,80
2023-04-30T03:37:08.694Z,80
2023-04-30T03:38:08.309Z,80
2023-04-30T03:39:08.009Z,80
2023-04-30T03:40:08.144Z,80
2023-04-30T03:41:07.719Z,80
2023-04-30T03:42:07.926Z,80
2023-04-30T03:43:08.639Z,80
2023-04-30T03:44:07.729Z,80
2023-04-30T03:45:07.918Z,80
2023-04-30T03:48:09.014Z,80
2023-04-30T03:49:08.074Z,81
2023-04-30T03:50:08.272Z,81
2023-04-30T03:51:08.638Z,80
2023-04-30T03:52:07.975Z,80
2023-04-30T03:53:08.370Z,80
2023-04-30T03:54:08.578Z,80
2023-04-30T03:55:07.840Z,80
2023-04-30T03:56:07.929Z,80
2023-04-30T03:57:08.168Z,80
2023-04-30T03:58:08.563Z,80
2023-04-30T03:59:08.822Z,80
2023-04-30T04:00:07.927Z,80
2023-04-30T04:02:08.497Z,80
2023-04-30T04:03:08.640Z,80
2023-04-30T04:04:08.680Z,80
2023-04-30T04:05:07.810Z,80
2023-04-30T04:06:08.227Z,80
2023-04-30T04:07:08.339Z,80
2023-04-30T04:08:08.667Z,80
2023-04-30T04:09:07.855Z,80
2023-04-30T04:10:08.092Z,80
2023-04-30T04:11:08.122Z,80
2023-04-30T04:12:08.497Z,80
2023-04-30T04:13:08.328Z,80
2023-04-30T04:15:08.234Z,81
2023-04-30T04:16:08.250Z,81
2023-04-30T04:17:08.377Z,81
2023-04-30T04:18:07.895Z,81
2023-04-30T04:19:08.137Z,81
2023-04-30T04:20:08.427Z,81
2023-04-30T04:21:07.884Z,81
2023-04-30T04:22:08.759Z,81
2023-04-30T04:23:08.154Z,81
2023-04-30T04:24:08.369Z,81
2023-04-30T04:25:07.892Z,81
2023-04-30T04:26:08.060Z,81
2023-04-30T04:27:08.371Z,81
2023-04-30T04:28:08.179Z,81
2023-04-30T04:29:07.895Z,81
2023-04-30T04:30:08.082Z,81
2023-04-30T04:31:08.418Z,81
2023-04-30T04:32:08.959Z,81
2023-04-30T04:33:07.937Z,81
2023-04-30T04:34:08.174Z,81
2023-04-30T04:35:08.340Z,81
2023-04-30T04:38:08.756Z,81
2023-04-30T04:39:07.959Z,81
2023-04-30T04:40:08.177Z,81
2023-04-30T04:41:08.226Z,81
2023-04-30T04:42:07.718Z,81
2023-04-30T04:43:08.230Z,81
2023-04-30T04:45:08.501Z,81
2023-04-30T04:46:07.742Z,81
2023-04-30T04:47:08.172Z,81
2023-04-30T04:48:08.210Z,81
2023-04-30T04:49:08.478Z,81
2023-04-30T04:50:08.453Z,81
2023-04-30T04:51:08.385Z,81
2023-04-30T04:52:08.731Z,81
2023-04-30T04:53:07.525Z,81
2023-04-30T04:54:07.817Z,81
2023-04-30T04:55:08.640Z,82
2023-04-30T04:56:08.137Z,81
2023-04-30T04:57:08.064Z,81
2023-04-30T04:58:08.546Z,81
2023-04-30T04:59:08.693Z,81
2023-04-30T05:00:08.260Z,81
2023-04-30T05:01:08.285Z,81
2023-04-30T05:02:08.642Z,81
2023-04-30T05:03:08.874Z,81
2023-04-30T05:06:07.805Z,81
2023-04-30T05:07:08.351Z,81
2023-04-30T05:08:08.739Z,81
2023-04-30T05:09:07.883Z,81
2023-04-30T05:10:08.307Z,81
2023-04-30T05:11:08.636Z,81
2023-04-30T05:12:07.960Z,81
2023-04-30T05:13:08.124Z,81
2023-04-30T05:15:08.856Z,81
2023-04-30T05:16:08.031Z,81
2023-04-30T05:17:08.069Z,81
2023-04-30T05:18:08.492Z,81
2023-04-30T05:19:08.845Z,81
2023-04-30T05:20:07.892Z,81
2023-04-30T05:21:07.822Z,81
2023-04-30T05:22:07.984Z,81
2023-04-30T05:24:08.583Z,81
2023-04-30T05:25:08.000Z,81
2023-04-30T05:26:08.384Z,81
2023-04-30T05:27:08.587Z,81
2023-04-30T05:28:07.706Z,81
2023-04-30T05:29:08.289Z,81
2023-04-30T05:30:08.711Z,81
2023-04-30T05:31:07.835Z,80
2023-04-30T05:32:08.520Z,81
2023-04-30T05:33:08.780Z,81
2023-04-30T05:34:07.818Z,80
2023-04-30T05:35:08.656Z,80
2023-04-30T05:39:08.418Z,80
2023-04-30T05:40:08.795Z,80
2023-04-30T05:41:07.774Z,80
2023-04-30T05:42:07.934Z,80
2023-04-30T05:43:08.040Z,80
2023-04-30T05:44:08.217Z,80
2023-04-30T05:45:08.539Z,80
2023-04-30T05:46:09.088Z,80
2023-04-30T05:47:07.984Z,80
2023-04-30T05:48:08.658Z,80
2023-04-30T05:49:08.329Z,80
2023-04-30T05:50:08.768Z,79
2023-04-30T05:52:08.277Z,79
2023-04-30T05:53:08.699Z,79
2023-04-30T05:54:07.896Z,79
2023-04-30T05:56:08.327Z,79
2023-04-30T05:57:08.508Z,79
2023-04-30T05:58:08.494Z,79
2023-04-30T05:59:07.908Z,79
2023-04-30T06:00:08.090Z,79
2023-04-30T06:01:08.335Z,79
2023-04-30T06:02:07.839Z,78
2023-04-30T06:03:08.459Z,78
2023-04-30T06:04:08.418Z,78
2023-04-30T06:05:07.410Z,78
2023-04-30T06:06:08.353Z,78
2023-04-30T06:07:08.433Z,78
2023-04-30T06:08:08.486Z,78
2023-04-30T06:09:07.975Z,78
2023-04-30T06:10:08.142Z,78
2023-04-30T06:11:07.893Z,78
2023-04-30T06:12:07.980Z,78
2023-04-30T06:15:08.353Z,78
2023-04-30T06:16:08.942Z,78
2023-04-30T06:17:08.515Z,77
2023-04-30T06:18:07.990Z,77
2023-04-30T06:19:08.842Z,77
2023-04-30T06:20:08.316Z,77
2023-04-30T06:21:08.258Z,77
2023-04-30T06:22:08.380Z,77
2023-04-30T06:23:08.869Z,77
2023-04-30T06:24:07.856Z,77
2023-04-30T06:25:08.203Z,77
2023-04-30T06:26:08.390Z,77
2023-04-30T06:27:08.630Z,76
2023-04-30T06:28:08.796Z,76
2023-04-30T06:29:08.073Z,76
2023-04-30T06:30:08.678Z,76
2023-04-30T06:31:07.946Z,76
2023-04-30T06:32:10.486Z,76
2023-04-30T06:33:08.775Z,75
2023-04-30T06:34:08.228Z,75
2023-04-30T06:35:08.619Z,76
2023-04-30T06:36:07.940Z,76
2023-04-30T06:37:07.807Z,75
2023-04-30T06:38:08.567Z,74
2023-04-30T06:39:08.616Z,74
2023-04-30T06:40:07.909Z,74
2023-04-30T06:41:07.994Z,74
2023-04-30T06:42:08.495Z,73
2023-04-30T06:43:08.870Z,73
2023-04-30T06:44:08.021Z,73
2023-04-30T06:45:08.378Z,72
2023-04-30T06:46:08.018Z,72
2023-04-30T06:47:08.241Z,72
2023-04-30T06:48:08.616Z,72
2023-04-30T06:49:08.834Z,71
2023-04-30T06:50:08.096Z,71
2023-04-30T06:51:09.234Z,71
2023-04-30T06:52:07.820Z,71
2023-04-30T06:53:07.997Z,71
2023-04-30T06:54:08.467Z,71
2023-04-30T06:55:07.896Z,71
2023-04-30T06:56:08.271Z,71
2023-04-30T06:57:08.525Z,71
2023-04-30T06:58:07.763Z,70
2023-04-30T06:59:07.728Z,70
2023-04-30T07:00:08.434Z,70
2023-04-30T07:01:08.662Z,69
2023-04-30T07:02:08.001Z,69
2023-04-30T07:03:08.516Z,69
2023-04-30T07:04:07.990Z,69
2023-04-30T07:05:08.130Z,68
2023-04-30T07:06:08.196Z,67
2023-04-30T07:07:08.232Z,67
2023-04-30T07:08:08.493Z,67
2023-04-30T07:09:08.619Z,66
2023-04-30T07:10:08.091Z,66
2023-04-30T07:11:08.147Z,65
2023-04-30T07:12:08.398Z,65
2023-04-30T07:13:08.573Z,65
2023-04-30T07:14:08.031Z,66
2023-04-30T07:15:08.387Z,65
2023-04-30T07:16:08.224Z,65
2023-04-30T07:17:08.418Z,65
2023-04-30T07:18:08.803Z,65
2023-04-30T07:19:07.817Z,65
2023-04-30T07:20:08.419Z,65
2023-04-30T07:21:08.673Z,65
2023-04-30T07:22:07.880Z,65
2023-04-30T07:23:08.161Z,65
2023-04-30T07:24:07.877Z,65
2023-04-30T07:25:08.252Z,65
2023-04-30T07:26:07.804Z,65
2023-04-30T07:27:08.107Z,64
2023-04-30T07:28:08.218Z,64
2023-04-30T07:29:08.602Z,64
2023-04-30T07:30:07.987Z,64
2023-04-30T07:31:08.671Z,64
2023-04-30T07:32:07.734Z,64
2023-04-30T07:33:08.132Z,64
2023-04-30T07:34:08.342Z,65
2023-04-30T07:35:08.795Z,64
2023-04-30T07:36:07.645Z,64
2023-04-30T07:37:08.056Z,65
2023-04-30T07:38:08.263Z,64
2023-04-30T07:39:08.628Z,64
2023-04-30T07:40:08.700Z,64
2023-04-30T07:42:08.358Z,64
2023-04-30T07:43:07.451Z,64
2023-04-30T07:44:08.524Z,64
2023-04-30T07:45:07.810Z,64
2023-04-30T07:46:08.236Z,63
2023-04-30T07:47:07.886Z,63
2023-04-30T07:48:08.534Z,63
2023-04-30T07:49:07.925Z,63
2023-04-30T07:50:08.184Z,63
2023-04-30T07:51:08.174Z,63
2023-04-30T07:52:08.332Z,63
2023-04-30T07:53:08.578Z,62
2023-04-30T07:56:08.440Z,62
2023-04-30T07:57:08.055Z,62
2023-04-30T07:58:08.227Z,62
2023-04-30T08:00:08.084Z,62
2023-04-30T08:01:08.619Z,62
2023-04-30T08:02:08.010Z,62
2023-04-30T08:03:08.225Z,62
2023-04-30T08:04:08.904Z,62
2023-04-30T08:05:08.070Z,62
2023-04-30T08:06:08.312Z,62
2023-04-30T08:07:08.349Z,62
2023-04-30T08:08:08.497Z,62
2023-04-30T08:09:07.697Z,62
2023-04-30T08:10:07.877Z,61
2023-04-30T08:11:08.257Z,61
2023-04-30T08:12:08.377Z,62
2023-04-30T08:13:08.689Z,62
2023-04-30T08:14:07.917Z,62
2023-04-30T08:15:08.490Z,62
2023-04-30T08:16:08.057Z,62
2023-04-30T08:17:07.972Z,62
2023-04-30T08:19:08.354Z,62
2023-04-30T08:20:08.679Z,62
2023-04-30T08:21:07.984Z,62
2023-04-30T08:22:08.189Z,62
2023-04-30T08:23:08.477Z,62
2023-04-30T08:24:08.741Z,62
2023-04-30T08:25:07.739Z,62
2023-04-30T08:26:08.109Z,61
2023-04-30T08:27:08.511Z,61
2023-04-30T08:28:08.742Z,61
2023-04-30T08:29:07.678Z,61
2023-04-30T08:30:08.252Z,61
2023-04-30T08:31:08.250Z,61
2023-04-30T08:32:08.718Z,61
2023-04-30T08:33:07.743Z,61
2023-04-30T08:34:08.182Z,61
2023-04-30T08:35:08.361Z,61
2023-04-30T08:36:08.516Z,61
2023-04-30T08:37:08.108Z,62
2023-04-30T08:39:08.603Z,62
2023-04-30T08:40:07.972Z,62
2023-04-30T08:41:08.023Z,62
2023-04-30T08:42:08.261Z,62
2023-04-30T08:43:08.503Z,63
2023-04-30T08:44:10.455Z,63
2023-04-30T08:45:08.638Z,63
2023-04-30T08:46:08.326Z,63
2023-04-30T08:47:07.842Z,63
2023-04-30T08:48:08.401Z,63
2023-04-30T08:49:08.240Z,63
2023-04-30T08:50:08.104Z,63
2023-04-30T08:51:07.925Z,63
2023-04-30T08:52:07.887Z,63
2023-04-30T08:53:08.330Z,63
2023-04-30T08:54:08.490Z,63
2023-04-30T08:55:07.957Z,63
2023-04-30T08:56:08.509Z,63
2023-04-30T08:57:08.843Z,63
2023-04-30T08:58:07.883Z,63
2023-04-30T08:59:08.292Z,63
2023-04-30T09:00:08.498Z,63
2023-04-30T09:01:08.025Z,63
2023-04-30T09:02:08.343Z,63
2023-04-30T09:03:08.722Z,63
2023-04-30T09:04:08.691Z,63
2023-04-30T09:06:08.254Z,63
2023-04-30T09:07:10.269Z,63
2023-04-30T09:09:08.761Z,63
2023-04-30T09:10:08.042Z,63
2023-04-30T09:11:08.310Z,63
2023-04-30T09:12:08.675Z,63
2023-04-30T09:13:08.377Z,63
2023-04-30T09:14:07.877Z,62
2023-04-30T09:15:07.938Z,62
2023-04-30T09:16:08.719Z,62
2023-04-30T09:17:08.818Z,62
2023-04-30T09:18:08.218Z,62
2023-04-30T09:19:08.162Z,62
2023-04-30T09:20:08.527Z,62
2023-04-30T09:21:08.590Z,61
2023-04-30T09:22:07.828Z,61
2023-04-30T09:23:08.078Z,61
2023-04-30T09:24:08.344Z,61
2023-04-30T09:25:08.347Z,61
2023-04-30T09:26:07.761Z,61
2023-04-30T09:27:08.061Z,61
2023-04-30T09:28:08.106Z,61
2023-04-30T09:29:08.498Z,61
2023-04-30T09:30:08.431Z,61
2023-04-30T09:31:08.732Z,61
2023-04-30T09:32:07.765Z,61
2023-04-30T09:33:10.851Z,61
2023-04-30T09:34:08.261Z,61
2023-04-30T09:35:08.731Z,61
2023-04-30T09:36:08.379Z,61
2023-04-30T09:37:08.380Z,61
2023-04-30T09:38:08.812Z,61
2023-04-30T09:39:10.953Z,61
2023-04-30T09:40:08.307Z,60
2023-04-30T09:41:08.469Z,60
2023-04-30T09:42:07.734Z,60
2023-04-30T09:43:08.140Z,60
2023-04-30T09:44:08.142Z,60
2023-04-30T09:45:08.595Z,61
2023-04-30T09:46:08.073Z,61
2023-04-30T09:47:08.314Z,61
2023-04-30T09:48:18.723Z,61
2023-04-30T09:49:08.640Z,61
2023-04-30T09:50:08.079Z,61
2023-04-30T09:51:08.082Z,60
2023-04-30T09:52:08.365Z,60
2023-04-30T09:53:08.332Z,60
2023-04-30T09:54:07.982Z,60
2023-04-30T09:55:08.284Z,60
2023-04-30T09:56:08.704Z,60
2023-04-30T09:57:07.816Z,60
2023-04-30T09:58:07.916Z,60
2023-04-30T09:59:08.223Z,60
2023-04-30T10:01:08.098Z,60
2023-04-30T10:02:08.348Z,60
2023-04-30T10:03:08.385Z,60
2023-04-30T10:05:08.034Z,60
2023-04-30T10:06:08.375Z,60
2023-04-30T10:07:08.635Z,60
2023-04-30T10:09:07.965Z,60
2023-04-30T10:10:08.160Z,60
2023-04-30T10:11:08.331Z,60
2023-04-30T10:12:08.538Z,60
2023-04-30T10:13:09.956Z,60
2023-04-30T10:14:07.726Z,60
2023-04-30T10:15:07.834Z,60
2023-04-30T10:16:08.142Z,60
2023-04-30T10:17:08.458Z,60
2023-04-30T10:18:08.124Z,60
2023-04-30T10:19:08.099Z,60
2023-04-30T10:20:08.326Z,60
2023-04-30T10:21:08.207Z,60
2023-04-30T10:22:08.363Z,59
2023-04-30T10:23:08.399Z,59
2023-04-30T10:24:08.801Z,59
2023-04-30T10:25:08.047Z,59
2023-04-30T10:29:08.351Z,59
2023-04-30T10:30:08.721Z,59
2023-04-30T10:31:08.072Z,59
2023-04-30T10:32:09.075Z,59
2023-04-30T10:33:08.493Z,59
2023-04-30T10:34:08.378Z,59
2023-04-30T10:35:08.698Z,59
2023-04-30T10:36:07.998Z,60
2023-04-30T10:37:08.023Z,60
2023-04-30T10:38:08.182Z,59
2023-04-30T10:39:08.618Z,59
2023-04-30T10:40:07.844Z,59
2023-04-30T10:41:07.842Z,59
2023-04-30T10:43:08.268Z,59
2023-04-30T10:44:08.641Z,59
2023-04-30T10:45:08.262Z,59
2023-04-30T10:46:07.581Z,58
2023-04-30T10:47:08.730Z,58
2023-04-30T10:48:08.728Z,58
2023-04-30T10:49:08.698Z,58
2023-04-30T10:50:07.923Z,58
2023-04-30T10:51:08.289Z,58
2023-04-30T10:52:08.581Z,58
2023-04-30T10:53:07.912Z,58
2023-04-30T10:54:08.121Z,58
2023-04-30T10:55:08.425Z,58
2023-04-30T10:56:09.750Z,58
2023-04-30T10:57:08.042Z,58
2023-04-30T10:58:08.273Z,58
2023-04-30T10:59:08.570Z,58
2023-04-30T11:00:08.818Z,57
2023-04-30T11:01:08.815Z,58
2023-04-30T11:02:07.768Z,58
2023-04-30T11:03:08.048Z,57
2023-04-30T11:05:08.772Z,57
2023-04-30T11:06:08.397Z,57
2023-04-30T11:07:08.572Z,57
2023-04-30T11:08:07.619Z,57
2023-04-30T11:09:08.035Z,57
2023-04-30T11:10:08.359Z,57
2023-04-30T11:12:08.495Z,57
2023-04-30T11:13:08.755Z,57
2023-04-30T11:14:07.977Z,57
2023-04-30T11:15:07.835Z,57
2023-04-30T11:16:07.891Z,56
2023-04-30T11:17:08.308Z,56
2023-04-30T11:18:08.398Z,56
2023-04-30T11:19:07.026Z,56
2023-04-30T11:20:08.863Z,56
2023-04-30T11:21:08.147Z,56
2023-04-30T11:22:08.542Z,56
2023-04-30T11:23:08.692Z,56
2023-04-30T11:24:08.079Z,56
2023-04-30T11:25:08.300Z,56
2023-04-30T11:26:08.124Z,56
2023-04-30T11:27:08.433Z,56
2023-04-30T11:28:08.378Z,55
2023-04-30T11:29:07.972Z,55
2023-04-30T11:30:08.182Z,55
2023-04-30T11:31:08.691Z,55
2023-04-30T11:32:07.474Z,55
2023-04-30T11:33:08.741Z,55
2023-04-30T11:34:07.976Z,55
2023-04-30T11:35:07.484Z,55
2023-04-30T11:36:08.782Z,54
2023-04-30T11:37:07.925Z,54
2023-04-30T11:38:08.334Z,54
2023-04-30T11:39:08.484Z,54
2023-04-30T11:40:08.585Z,54
2023-04-30T11:41:08.600Z,54
2023-04-30T11:42:07.715Z,53
2023-04-30T11:43:08.087Z,53
2023-04-30T11:44:08.500Z,53
2023-04-30T11:45:08.752Z,53
2023-04-30T11:46:08.375Z,53
2023-04-30T11:47:08.902Z,53
2023-04-30T11:48:08.073Z,53
2023-04-30T11:49:08.000Z,53
2023-04-30T11:50:08.623Z,53
2023-04-30T11:51:08.616Z,53
2023-04-30T11:52:07.773Z,52
2023-04-30T11:53:08.382Z,52
2023-04-30T11:54:08.359Z,52
2023-04-30T11:55:07.870Z,52
2023-04-30T11:56:08.472Z,51
2023-04-30T11:57:08.396Z,51
2023-04-30T11:58:07.923Z,51
2023-04-30T11:59:08.176Z,51
2023-04-30T12:00:08.486Z,51
2023-04-30T12:01:08.330Z,51
2023-04-30T12:02:08.579Z,51
2023-04-30T12:03:08.609Z,52
2023-04-30T12:04:08.449Z,52
2023-04-30T12:05:08.131Z,52
2023-04-30T12:07:08.204Z,52
2023-04-30T12:08:08.351Z,53
2023-04-30T12:09:08.624Z,53
2023-04-30T12:10:07.950Z,52
2023-04-30T12:11:08.141Z,52
2023-04-30T12:12:08.147Z,52
2023-04-30T12:14:08.812Z,52
2023-04-30T12:15:07.964Z,52
2023-04-30T12:16:08.199Z,52
2023-04-30T12:17:08.318Z,52
2023-04-30T12:18:08.682Z,53
2023-04-30T12:19:07.995Z,53
2023-04-30T12:20:08.228Z,53
2023-04-30T12:21:08.650Z,53
2023-04-30T12:22:08.639Z,53
2023-04-30T12:23:07.729Z,53
2023-04-30T12:24:08.341Z,53
2023-04-30T12:25:08.618Z,52
2023-04-30T12:26:08.531Z,52
2023-04-30T12:27:08.685Z,52
2023-04-30T12:29:08.247Z,52
2023-04-30T12:30:08.584Z,52
2023-04-30T12:31:08.083Z,52
2023-04-30T12:32:07.969Z,52
2023-04-30T12:33:08.146Z,52
2023-04-30T12:34:08.253Z,52
2023-04-30T12:35:08.321Z,52
2023-04-30T12:36:07.838Z,52
2023-04-30T12:37:08.093Z,52
2023-04-30T12:38:08.483Z,51
2023-04-30T12:39:08.668Z,51
2023-04-30T12:40:08.070Z,52
2023-04-30T12:41:08.410Z,52
2023-04-30T12:42:08.724Z,52
2023-04-30T12:43:08.028Z,52
2023-04-30T12:44:08.120Z,52
2023-04-30T12:45:08.516Z,51
2023-04-30T12:46:08.099Z,51
2023-04-30T12:47:08.231Z,51
2023-04-30T12:48:08.720Z,51
2023-04-30T12:49:07.880Z,51
2023-04-30T12:50:08.017Z,51
2023-04-30T12:51:08.068Z,51
2023-04-30T12:52:08.052Z,51
2023-04-30T12:53:08.534Z,51
2023-04-30T12:54:08.563Z,51
2023-04-30T12:55:08.233Z,51
2023-04-30T12:56:08.468Z,51
2023-04-30T12:57:07.771Z,51
2023-04-30T12:58:08.080Z,51
2023-04-30T12:59:08.122Z,51
2023-04-30T13:00:08.259Z,51
2023-04-30T13:01:08.836Z,51
2023-04-30T13:02:08.005Z,51
2023-04-30T13:03:08.382Z,51
2023-04-30T13:04:08.604Z,51
2023-04-30T13:05:10.326Z,51
2023-04-30T13:07:08.597Z,51
2023-04-30T13:08:06.969Z,51
2023-04-30T13:09:08.432Z,51
2023-04-30T13:10:08.235Z,51
2023-04-30T13:11:09.333Z,51
2023-04-30T13:12:08.511Z,51
2023-04-30T13:13:08.209Z,51
2023-04-30T13:14:08.026Z,51
2023-04-30T13:15:08.494Z,51
2023-04-30T13:16:08.043Z,51
2023-04-30T13:19:08.077Z,51
2023-04-30T13:20:08.187Z,51
2023-04-30T13:22:07.424Z,51
2023-04-30T13:23:08.570Z,50
2023-04-30T13:24:08.067Z,50
2023-04-30T13:25:08.444Z,50
2023-04-30T13:26:08.329Z,50
2023-04-30T13:27:08.443Z,50
2023-04-30T13:28:07.961Z,50
2023-04-30T13:29:07.913Z,50
2023-04-30T13:30:08.275Z,50
2023-04-30T13:31:08.016Z,50
2023-04-30T13:32:08.268Z,50
2023-04-30T13:33:08.495Z,50
2023-04-30T13:34:08.559Z,50
2023-04-30T13:35:08.097Z,50
2023-04-30T13:36:08.018Z,50
2023-04-30T13:37:08.579Z,50
2023-04-30T13:38:08.725Z,50
2023-04-30T13:39:07.880Z,50
2023-04-30T13:40:08.478Z,50
2023-04-30T13:41:08.452Z,50
2023-04-30T13:42:08.542Z,50
2023-04-30T13:43:07.290Z,50
2023-04-30T13:44:08.547Z,50
2023-04-30T13:45:08.165Z,50
2023-04-30T13:47:08.805Z,49
2023-04-30T13:48:08.929Z,49
2023-04-30T13:49:07.963Z,50
2023-04-30T13:50:08.325Z,50
2023-04-30T13:51:08.067Z,50
2023-04-30T13:52:08.463Z,50
2023-04-30T13:53:08.746Z,50
2023-04-30T13:54:07.988Z,51
2023-04-30T13:55:08.852Z,51
2023-04-30T13:56:08.494Z,51
2023-04-30T13:57:08.870Z,50
2023-04-30T13:58:08.224Z,50
2023-04-30T13:59:08.436Z,49
2023-04-30T14:00:08.701Z,49
2023-04-30T14:01:07.978Z,49
2023-04-30T14:02:08.234Z,49
2023-04-30T14:03:10.283Z,49
2023-04-30T14:04:08.343Z,49
2023-04-30T14:05:09.213Z,49
2023-04-30T14:06:08.435Z,49
2023-04-30T14:07:08.308Z,49
2023-04-30T14:08:08.637Z,49
2023-04-30T14:09:07.837Z,49
2023-04-30T14:10:08.203Z,49
2023-04-30T14:11:08.337Z,48
2023-04-30T14:12:08.529Z,49
2023-04-30T14:13:07.965Z,48
2023-04-30T14:14:07.925Z,48
2023-04-30T14:15:08.299Z,49
2023-04-30T14:16:07.961Z,49
2023-04-30T14:17:08.050Z,48
2023-04-30T14:18:08.564Z,48
2023-04-30T14:19:08.479Z,48
2023-04-30T14:20:08.817Z,48
2023-04-30T14:21:08.125Z,48
2023-04-30T14:22:08.202Z,48
2023-04-30T14:23:07.644Z,48
2023-04-30T14:24:08.080Z,48
2023-04-30T14:25:08.485Z,49
2023-04-30T14:28:08.023Z,49
2023-04-30T14:29:08.531Z,49
2023-04-30T14:30:08.819Z,49
2023-04-30T14:31:08.680Z,49
2023-04-30T14:32:08.118Z,49
2023-04-30T14:33:08.322Z,48
2023-04-30T14:34:08.258Z,48
2023-04-30T14:35:08.647Z,48
2023-04-30T14:36:08.708Z,48
2023-04-30T14:37:08.047Z,48
2023-04-30T14:38:08.289Z,48
2023-04-30T14:39:08.597Z,48
2023-04-30T14:40:07.944Z,48
2023-04-30T14:41:08.067Z,48
2023-04-30T14:42:08.258Z,48
2023-04-30T14:44:08.243Z,48
2023-04-30T14:45:08.665Z,48
2023-04-30T14:46:08.672Z,48
2023-04-30T14:47:07.950Z,48
2023-04-30T14:48:08.526Z,48
2023-04-30T14:49:08.758Z,47
2023-04-30T14:50:08.107Z,47
2023-04-30T14:51:07.700Z,47
2023-04-30T14:52:08.141Z,47
2023-04-30T14:53:08.282Z,47
2023-04-30T14:54:08.552Z,47
2023-04-30T14:55:07.824Z,47
2023-04-30T14:56:07.665Z,47
2023-04-30T14:57:08.019Z,47
2023-04-30T14:58:08.141Z,48
2023-04-30T14:59:08.312Z,48
2023-04-30T15:00:07.676Z,48
2023-04-30T15:01:08.198Z,48
2023-04-30T15:02:08.330Z,48
2023-04-30T15:03:08.703Z,49
2023-04-30T15:05:08.121Z,49
2023-04-30T15:06:07.894Z,49
2023-04-30T15:07:07.983Z,49
2023-04-30T15:08:08.236Z,49
2023-04-30T15:09:08.267Z,49
2023-04-30T15:12:07.725Z,49
2023-04-30T15:13:08.003Z,49
2023-04-30T15:14:08.270Z,49
2023-04-30T15:15:08.649Z,49
2023-04-30T15:16:08.352Z,49
2023-04-30T15:17:08.573Z,49
2023-04-30T15:18:07.713Z,49
2023-04-30T15:19:07.945Z,49
2023-04-30T15:20:08.277Z,49
2023-04-30T15:21:08.601Z,49
2023-04-30T15:22:08.667Z,49